createdAt,value
2019-03-20T00:00:17.489Z,2.25
2019-03-20T00:02:49.657Z,2.24
2019-03-20T00:05:19.915Z,2.21
2019-03-20T00:07:50.015Z,2.20
2019-03-20T00:10:20.298Z,2.17
2019-03-20T00:12:50.480Z,2.15
2019-03-20T00:15:20.661Z,2.13
2019-03-20T00:17:52.387Z,2.10
2019-03-20T00:20:22.699Z,2.06
2019-03-20T00:22:52.811Z,2.05
2019-03-20T00:25:23.012Z,2.04
2019-03-20T00:27:53.757Z,2.01
2019-03-20T00:30:24.234Z,1.99
2019-03-20T00:32:54.428Z,1.98
2019-03-20T00:35:24.641Z,1.97
2019-03-20T00:37:54.824Z,1.95
2019-03-20T00:40:24.937Z,1.93
2019-03-20T00:42:56.223Z,1.90
2019-03-20T00:45:26.569Z,1.88
2019-03-20T00:47:56.729Z,1.86
2019-03-20T00:50:27.114Z,1.86
2019-03-20T00:52:58.311Z,1.83
2019-03-20T00:55:28.493Z,1.82
2019-03-20T00:57:58.685Z,1.79
2019-03-20T01:00:28.915Z,1.77
2019-03-20T01:02:59.439Z,1.72
2019-03-20T01:05:29.563Z,1.70
2019-03-20T01:07:59.687Z,1.69
2019-03-20T01:10:31.133Z,1.68
2019-03-20T01:13:01.251Z,1.67
2019-03-20T01:15:31.839Z,1.63
2019-03-20T01:18:02.192Z,1.62
2019-03-20T01:20:32.902Z,1.57
2019-03-20T01:23:03.027Z,1.60
2019-03-20T01:25:35.184Z,1.60
2019-03-20T01:28:09.111Z,1.59
2019-03-20T01:30:39.598Z,1.58
2019-03-20T01:33:11.575Z,1.57
2019-03-20T01:35:42.113Z,1.54
2019-03-20T01:38:12.234Z,1.57
2019-03-20T01:40:44.935Z,1.60
2019-03-20T01:43:15.045Z,1.61
2019-03-20T01:45:45.165Z,1.63
2019-03-20T01:48:17.462Z,1.64
2019-03-20T01:50:47.557Z,1.64
2019-03-20T01:53:17.687Z,1.66
2019-03-20T01:55:47.785Z,1.66
2019-03-20T01:58:18.068Z,1.68
2019-03-20T02:00:48.413Z,1.69
2019-03-20T02:03:18.743Z,1.69
2019-03-20T02:05:51.939Z,1.64
2019-03-20T02:08:22.099Z,1.63
2019-03-20T02:10:52.764Z,1.59
2019-03-20T02:13:22.947Z,1.57
2019-03-20T02:15:53.068Z,1.52
2019-03-20T02:18:24.682Z,1.52
2019-03-20T02:20:55.068Z,1.49
2019-03-20T02:23:25.438Z,1.48
2019-03-20T02:25:55.560Z,1.46
2019-03-20T02:28:26.923Z,1.45
2019-03-20T02:30:58.829Z,1.43
2019-03-20T02:33:30.003Z,1.39
2019-03-20T02:36:00.156Z,1.40
2019-03-20T02:38:32.399Z,1.37
2019-03-20T02:41:03.405Z,1.39
2019-03-20T02:43:33.550Z,1.38
2019-03-20T02:46:03.647Z,1.39
2019-03-20T02:48:33.838Z,1.39
2019-03-20T02:51:04.028Z,1.37
2019-03-20T02:53:34.246Z,1.36
2019-03-20T02:56:04.383Z,1.37
2019-03-20T02:58:34.478Z,1.37
2019-03-20T03:01:04.677Z,1.39
2019-03-20T03:03:34.982Z,1.37
2019-03-20T03:06:07.049Z,1.39
2019-03-20T03:08:37.157Z,1.38
2019-03-20T03:11:09.048Z,1.38
2019-03-20T03:13:40.792Z,1.38
2019-03-20T03:16:10.966Z,1.37
2019-03-20T03:18:42.686Z,1.34
2019-03-20T03:21:12.896Z,1.33
2019-03-20T03:23:48.714Z,1.35
2019-03-20T03:26:21.993Z,1.37
2019-03-20T03:28:53.162Z,1.33
2019-03-20T03:31:26.433Z,1.35
2019-03-20T03:33:56.590Z,1.36
2019-03-20T03:36:26.661Z,1.36
2019-03-20T03:38:56.829Z,1.31
2019-03-20T03:41:26.953Z,1.34
2019-03-20T03:43:57.128Z,1.35
2019-03-20T03:46:27.226Z,1.34
2019-03-20T03:48:57.434Z,1.36
2019-03-20T03:51:27.609Z,1.34
2019-03-20T03:53:57.746Z,1.32
2019-03-20T03:56:29.852Z,1.29
2019-03-20T03:58:59.659Z,1.31
2019-03-20T04:01:31.500Z,1.31
2019-03-20T04:04:03.965Z,1.31
2019-03-20T04:06:35.829Z,1.30
2019-03-20T04:09:08.000Z,1.32
2019-03-20T04:11:38.113Z,1.32
2019-03-20T04:14:11.213Z,1.31
2019-03-20T04:16:41.791Z,1.31
2019-03-20T04:19:13.076Z,1.29
2019-03-20T04:21:43.691Z,1.31
2019-03-20T04:24:18.389Z,1.32
2019-03-20T04:26:52.194Z,1.31
2019-03-20T04:29:24.963Z,1.31
2019-03-20T04:31:56.056Z,1.27
2019-03-20T04:34:28.235Z,1.28
2019-03-20T04:36:58.397Z,1.29
2019-03-20T04:39:29.461Z,1.29
2019-03-20T04:41:59.551Z,1.30
2019-03-20T04:44:30.582Z,1.28
2019-03-20T04:47:05.360Z,1.27
2019-03-20T04:49:38.079Z,1.26
2019-03-20T04:52:09.270Z,1.29
2019-03-20T04:54:40.479Z,1.27
2019-03-20T04:57:10.663Z,1.27
2019-03-20T04:59:41.275Z,1.25
2019-03-20T05:02:13.133Z,1.23
2019-03-20T05:04:45.945Z,1.21
2019-03-20T05:07:18.901Z,1.23
2019-03-20T05:09:49.153Z,1.22
2019-03-20T05:12:19.563Z,1.22
2019-03-20T05:14:54.614Z,1.23
2019-03-20T05:17:43.803Z,1.22
2019-03-20T05:20:18.723Z,1.21
2019-03-20T05:22:51.623Z,1.23
2019-03-20T05:25:21.803Z,1.23
2019-03-20T05:27:51.893Z,1.26
2019-03-20T05:30:22.103Z,1.29
2019-03-20T05:33:02.816Z,1.30
2019-03-20T05:35:34.078Z,1.32
2019-03-20T05:38:04.263Z,1.34
2019-03-20T05:40:34.446Z,1.33
2019-03-20T05:43:04.543Z,1.33
2019-03-20T05:45:34.699Z,1.35
2019-03-20T05:48:05.181Z,1.35
2019-03-20T05:50:38.155Z,1.37
2019-03-20T05:53:08.303Z,1.41
2019-03-20T05:55:38.439Z,1.44
2019-03-20T05:58:08.551Z,1.49
2019-03-20T06:00:38.851Z,1.53
2019-03-20T06:03:09.105Z,1.60
2019-03-20T06:05:40.261Z,1.63
2019-03-20T06:08:13.067Z,1.69
2019-03-20T06:10:43.279Z,1.76
2019-03-20T06:13:15.779Z,1.81
2019-03-20T06:15:48.106Z,1.85
2019-03-20T06:18:18.373Z,1.90
2019-03-20T06:20:48.573Z,1.96
2019-03-20T06:23:18.791Z,2.01
2019-03-20T06:25:51.406Z,2.06
2019-03-20T06:28:22.121Z,2.15
2019-03-20T06:30:55.199Z,2.21
2019-03-20T06:33:25.444Z,2.28
2019-03-20T06:35:55.710Z,2.34
2019-03-20T06:38:26.070Z,2.41
2019-03-20T06:40:56.313Z,2.49
2019-03-20T06:43:27.820Z,2.55
2019-03-20T06:46:00.824Z,2.62
2019-03-20T06:48:32.824Z,2.68
2019-03-20T06:51:03.125Z,2.76
2019-03-20T06:53:36.259Z,2.82
2019-03-20T06:56:06.504Z,2.89
2019-03-20T06:58:36.861Z,2.95
2019-03-20T07:01:15.633Z,3.02
2019-03-20T07:04:13.444Z,3.12
2019-03-20T07:07:22.811Z,3.16
2019-03-20T07:10:16.109Z,3.28
2019-03-20T07:12:47.402Z,3.37
2019-03-20T07:15:17.574Z,3.45
2019-03-20T07:17:47.949Z,3.52
2019-03-20T07:20:18.125Z,3.59
2019-03-20T07:22:48.632Z,3.68
2019-03-20T07:25:20.874Z,3.74
2019-03-20T07:27:51.302Z,3.83
2019-03-20T07:30:21.578Z,3.89
2019-03-20T07:32:53.384Z,4.02
2019-03-20T07:35:24.066Z,4.10
2019-03-20T07:37:56.233Z,4.16
2019-03-20T07:40:29.046Z,4.22
2019-03-20T07:43:08.311Z,4.32
2019-03-20T07:45:32.747Z,4.41
2019-03-20T07:48:02.870Z,4.47
2019-03-20T07:50:33.038Z,4.56
2019-03-20T07:53:03.820Z,4.64
2019-03-20T07:55:33.938Z,4.73
2019-03-20T07:58:04.221Z,4.84
2019-03-20T08:00:34.355Z,4.95
2019-03-20T08:03:04.607Z,5.07
2019-03-20T08:05:34.762Z,5.15
2019-03-20T08:08:07.551Z,5.24
2019-03-20T08:10:37.248Z,5.35
2019-03-20T08:13:07.440Z,5.47
2019-03-20T08:15:38.920Z,5.54
2019-03-20T08:18:12.188Z,5.66
2019-03-20T08:20:42.336Z,5.83
2019-03-20T08:23:13.855Z,5.89
2019-03-20T08:25:46.777Z,5.98
2019-03-20T08:28:17.126Z,6.06
2019-03-20T08:30:47.314Z,6.29
2019-03-20T08:33:20.464Z,6.33
2019-03-20T08:35:53.735Z,6.44
2019-03-20T08:38:24.438Z,6.71
2019-03-20T08:40:54.720Z,6.78
2019-03-20T08:43:24.885Z,6.89
2019-03-20T08:45:55.034Z,6.97
2019-03-20T08:48:25.269Z,7.24
2019-03-20T08:50:55.529Z,7.35
2019-03-20T08:53:25.731Z,7.46
2019-03-20T08:55:55.880Z,7.53
2019-03-20T08:58:28.752Z,7.69
2019-03-20T09:01:01.403Z,7.81
2019-03-20T09:03:38.852Z,7.92
2019-03-20T09:06:09.103Z,7.97
2019-03-20T09:08:40.349Z,8.12
2019-03-20T09:11:10.493Z,8.20
2019-03-20T09:13:40.745Z,8.29
2019-03-20T09:16:10.996Z,8.40
2019-03-20T09:18:41.222Z,8.42
2019-03-20T09:21:11.361Z,8.39
2019-03-20T09:23:45.611Z,8.53
2019-03-20T09:26:18.126Z,8.62
2019-03-20T09:28:48.294Z,8.65
2019-03-20T09:31:18.517Z,8.73
2019-03-20T09:33:51.188Z,8.81
2019-03-20T09:36:21.869Z,8.90
2019-03-20T09:38:55.025Z,9.09
2019-03-20T09:41:25.179Z,9.01
2019-03-20T09:43:55.519Z,9.05
2019-03-20T09:46:25.816Z,9.22
2019-03-20T09:48:55.949Z,9.24
2019-03-20T09:51:26.505Z,9.35
2019-03-20T09:53:59.607Z,9.44
2019-03-20T09:56:29.741Z,9.53
2019-03-20T09:58:59.848Z,9.70
2019-03-20T10:01:29.975Z,9.77
2019-03-20T10:04:04.875Z,9.83
2019-03-20T10:06:37.788Z,10.07
2019-03-20T10:09:10.818Z,9.97
2019-03-20T10:11:41.180Z,9.89
2019-03-20T10:14:11.384Z,9.87
2019-03-20T10:16:41.504Z,9.95
2019-03-20T10:19:13.303Z,9.98
2019-03-20T10:21:43.422Z,10.18
2019-03-20T10:24:14.107Z,10.24
2019-03-20T10:26:44.227Z,10.11
2019-03-20T10:29:16.019Z,10.28
2019-03-20T10:31:46.267Z,10.43
2019-03-20T10:34:16.619Z,10.45
2019-03-20T10:36:46.789Z,10.57
2019-03-20T10:39:17.017Z,10.62
2019-03-20T10:41:47.165Z,10.79
2019-03-20T10:44:17.328Z,11.00
2019-03-20T10:46:47.654Z,11.25
2019-03-20T10:49:18.618Z,11.44
2019-03-20T10:51:48.749Z,11.56
2019-03-20T10:54:18.886Z,11.76
2019-03-20T10:56:49.082Z,11.96
2019-03-20T10:59:19.238Z,12.20
2019-03-20T11:01:49.398Z,12.31
2019-03-20T11:04:19.624Z,12.32
2019-03-20T11:06:49.986Z,12.10
2019-03-20T11:09:20.352Z,12.02
2019-03-20T11:11:50.626Z,11.95
2019-03-20T11:14:20.951Z,12.11
2019-03-20T11:16:51.175Z,12.10
2019-03-20T11:19:21.424Z,12.04
2019-03-20T11:21:51.744Z,12.19
2019-03-20T11:24:21.965Z,12.31
2019-03-20T11:26:52.754Z,12.26
2019-03-20T11:29:23.054Z,12.37
2019-03-20T11:31:53.303Z,12.31
2019-03-20T11:34:23.726Z,12.32
2019-03-20T11:36:54.071Z,12.31
2019-03-20T11:39:29.514Z,12.29
2019-03-20T11:41:56.876Z,12.21
2019-03-20T11:44:27.077Z,12.39
2019-03-20T11:46:58.565Z,12.39
2019-03-20T11:49:31.501Z,12.31
2019-03-20T11:52:06.800Z,12.37
2019-03-20T11:54:37.048Z,12.41
2019-03-20T11:57:08.690Z,12.39
2019-03-20T11:59:38.920Z,12.37
2019-03-20T12:02:09.904Z,12.48
2019-03-20T12:04:42.188Z,12.52
2019-03-20T12:07:12.402Z,12.34
2019-03-20T12:09:43.744Z,12.42
2019-03-20T12:12:14.027Z,12.31
2019-03-20T12:14:44.252Z,12.10
2019-03-20T12:17:14.408Z,12.15
2019-03-20T12:19:45.253Z,12.11
2019-03-20T12:22:15.702Z,12.24
2019-03-20T12:24:47.588Z,12.46
2019-03-20T12:27:18.598Z,12.40
2019-03-20T12:29:50.695Z,12.33
2019-03-20T12:32:21.122Z,12.23
2019-03-20T12:34:51.319Z,12.30
2019-03-20T12:37:21.631Z,12.53
2019-03-20T12:39:55.282Z,12.76
2019-03-20T12:42:25.532Z,12.73
2019-03-20T12:44:55.963Z,12.89
2019-03-20T12:47:27.521Z,12.96
2019-03-20T12:49:58.036Z,13.04
2019-03-20T12:52:28.250Z,12.86
2019-03-20T12:54:58.765Z,12.53
2019-03-20T12:57:29.224Z,12.60
2019-03-20T12:59:59.451Z,12.57
2019-03-20T13:02:29.615Z,12.73
2019-03-20T13:04:59.893Z,12.95
2019-03-20T13:07:30.557Z,12.89
2019-03-20T13:10:03.555Z,13.19
2019-03-20T13:12:35.162Z,13.45
2019-03-20T13:15:07.852Z,13.57
2019-03-20T13:17:41.139Z,13.61
2019-03-20T13:20:12.125Z,13.74
2019-03-20T13:22:42.320Z,13.47
2019-03-20T13:25:13.445Z,13.32
2019-03-20T13:27:43.622Z,13.22
2019-03-20T13:30:20.430Z,13.07
2019-03-20T13:32:48.831Z,13.05
2019-03-20T13:35:18.998Z,13.17
2019-03-20T13:37:51.483Z,13.17
2019-03-20T13:40:21.807Z,12.88
2019-03-20T13:42:52.048Z,12.77
2019-03-20T13:45:24.459Z,12.77
2019-03-20T13:47:54.746Z,12.65
2019-03-20T13:50:25.099Z,12.62
2019-03-20T13:52:55.619Z,12.63
2019-03-20T13:55:30.157Z,12.50
2019-03-20T13:58:00.555Z,12.55
2019-03-20T14:00:30.740Z,12.57
2019-03-20T14:03:02.368Z,12.69
2019-03-20T14:05:34.599Z,12.69
2019-03-20T14:08:05.159Z,12.65
2019-03-20T14:10:49.420Z,12.72
2019-03-20T14:13:07.318Z,12.69
2019-03-20T14:15:37.702Z,12.84
2019-03-20T14:18:07.826Z,12.85
2019-03-20T14:20:39.524Z,12.96
2019-03-20T14:23:10.023Z,12.96
2019-03-20T14:25:40.345Z,12.83
2019-03-20T14:28:13.025Z,12.66
2019-03-20T14:30:43.281Z,12.60
2019-03-20T14:33:13.447Z,12.66
2019-03-20T14:35:43.698Z,12.60
2019-03-20T14:38:13.936Z,12.61
2019-03-20T14:40:44.341Z,12.67
2019-03-20T14:43:14.783Z,12.69
2019-03-20T14:45:45.123Z,12.56
2019-03-20T14:48:15.411Z,12.55
2019-03-20T14:50:45.710Z,12.62
2019-03-20T14:53:17.212Z,12.50
2019-03-20T14:55:47.500Z,12.29
2019-03-20T14:58:17.674Z,12.33
2019-03-20T15:00:49.196Z,12.31
2019-03-20T15:03:19.516Z,12.36
2019-03-20T15:05:49.685Z,12.43
2019-03-20T15:08:20.814Z,12.42
2019-03-20T15:11:03.191Z,12.38
2019-03-20T15:13:38.330Z,12.38
2019-03-20T15:16:16.193Z,12.45
2019-03-20T15:18:48.185Z,12.43
2019-03-20T15:21:23.210Z,12.50
2019-03-20T15:23:59.830Z,12.52
2019-03-20T15:26:30.451Z,12.42
2019-03-20T15:29:03.760Z,12.42
2019-03-20T15:31:35.077Z,12.38
2019-03-20T15:34:08.368Z,12.35
2019-03-20T15:36:42.044Z,12.34
2019-03-20T15:39:12.489Z,12.33
2019-03-20T15:41:42.838Z,12.30
2019-03-20T15:44:20.651Z,12.34
2019-03-20T15:46:54.025Z,12.39
2019-03-20T15:49:32.546Z,12.34
2019-03-20T15:52:14.551Z,12.39
2019-03-20T15:54:48.535Z,12.30
2019-03-20T15:57:29.375Z,12.32
2019-03-20T16:00:09.441Z,12.23
2019-03-20T16:02:42.671Z,12.18
2019-03-20T16:05:20.212Z,12.19
2019-03-20T16:07:52.348Z,12.15
2019-03-20T16:10:27.052Z,12.09
2019-03-20T16:13:00.918Z,12.03
2019-03-20T16:15:38.970Z,12.06
2019-03-20T16:18:22.692Z,12.08
2019-03-20T16:21:04.186Z,12.04
2019-03-20T16:24:25.848Z,11.99
2019-03-20T16:27:05.537Z,11.94
2019-03-20T16:29:39.428Z,11.83
2019-03-20T16:32:11.334Z,11.88
2019-03-20T16:34:41.908Z,11.90
2019-03-20T16:37:12.362Z,11.89
2019-03-20T16:39:47.296Z,11.91
2019-03-20T16:42:18.403Z,11.90
2019-03-20T16:44:50.000Z,11.91
2019-03-20T16:47:22.206Z,11.81
2019-03-20T16:49:52.440Z,11.81
2019-03-20T16:52:23.749Z,11.76
2019-03-20T16:55:06.846Z,11.71
2019-03-20T16:57:40.358Z,11.70
2019-03-20T17:00:20.849Z,11.69
2019-03-20T17:02:52.460Z,11.65
2019-03-20T17:05:29.353Z,11.70
2019-03-20T17:08:06.710Z,11.60
2019-03-20T17:10:46.373Z,11.65
2019-03-20T17:13:20.685Z,11.61
2019-03-20T17:16:16.588Z,11.61
2019-03-20T17:18:47.690Z,11.58
2019-03-20T17:21:17.926Z,11.58
2019-03-20T17:23:48.221Z,11.54
2019-03-20T17:26:20.204Z,11.54
2019-03-20T17:28:51.611Z,11.47
2019-03-20T17:31:21.850Z,11.46
2019-03-20T17:33:52.211Z,11.48
2019-03-20T17:36:22.935Z,11.46
2019-03-20T17:38:53.483Z,11.47
2019-03-20T17:41:23.683Z,11.40
2019-03-20T17:43:53.949Z,11.37
2019-03-20T17:46:27.584Z,11.32
2019-03-20T17:48:57.771Z,11.27
2019-03-20T17:51:27.985Z,11.21
2019-03-20T17:53:58.335Z,11.12
2019-03-20T17:56:28.987Z,10.93
2019-03-20T17:58:59.276Z,10.87
2019-03-20T18:01:32.577Z,10.86
2019-03-20T18:04:02.713Z,10.84
2019-03-20T18:06:34.061Z,10.82
2019-03-20T18:09:05.824Z,10.84
2019-03-20T18:11:47.104Z,10.87
2019-03-20T18:14:13.235Z,10.81
2019-03-20T18:16:43.947Z,10.74
2019-03-20T18:19:14.715Z,10.80
2019-03-20T18:21:44.978Z,10.74
2019-03-20T18:24:16.400Z,10.74
2019-03-20T18:26:49.064Z,10.74
2019-03-20T18:29:19.372Z,10.71
2019-03-20T18:31:53.686Z,10.66
2019-03-20T18:34:24.853Z,10.67
2019-03-20T18:36:56.595Z,10.67
2019-03-20T18:39:26.824Z,10.60
2019-03-20T18:41:58.068Z,10.61
2019-03-20T18:44:34.058Z,10.60
2019-03-20T18:47:04.203Z,10.54
2019-03-20T18:49:34.472Z,10.52
2019-03-20T18:52:04.778Z,10.53
2019-03-20T18:54:38.039Z,10.45
2019-03-20T18:57:08.278Z,10.49
2019-03-20T18:59:42.786Z,10.38
2019-03-20T19:02:13.152Z,10.39
2019-03-20T19:04:49.357Z,10.38
2019-03-20T19:07:24.494Z,10.34
2019-03-20T19:09:55.099Z,10.35
2019-03-20T19:12:36.780Z,10.26
2019-03-20T19:15:12.221Z,10.27
2019-03-20T19:17:42.540Z,10.22
2019-03-20T19:20:15.393Z,10.15
2019-03-20T19:22:49.663Z,10.00
2019-03-20T19:25:19.908Z,9.88
2019-03-20T19:27:52.684Z,9.90
2019-03-20T19:30:22.932Z,9.93
2019-03-20T19:32:53.091Z,9.84
2019-03-20T19:35:23.354Z,9.80
2019-03-20T19:37:53.493Z,9.79
2019-03-20T19:40:23.764Z,9.76
2019-03-20T19:42:58.937Z,9.83
2019-03-20T19:45:31.616Z,9.87
2019-03-20T19:48:01.822Z,10.00
2019-03-20T19:50:32.184Z,10.05
2019-03-20T19:53:02.475Z,10.05
2019-03-20T19:55:37.426Z,10.07
2019-03-20T19:58:07.712Z,10.12
2019-03-20T20:00:38.039Z,10.14
2019-03-20T20:03:08.161Z,10.14
2019-03-20T20:05:39.550Z,10.07
2019-03-20T20:08:09.816Z,10.11
2019-03-20T20:10:39.998Z,10.15
2019-03-20T20:13:12.005Z,10.13
2019-03-20T20:15:42.363Z,10.12
2019-03-20T20:18:13.543Z,10.13
2019-03-20T20:20:43.746Z,10.11
2019-03-20T20:23:14.028Z,10.12
2019-03-20T20:25:44.298Z,10.13
2019-03-20T20:28:14.700Z,10.12
2019-03-20T20:30:44.938Z,10.14
2019-03-20T20:33:15.089Z,10.19
2019-03-20T20:35:45.479Z,10.15
2019-03-20T20:38:15.644Z,10.23
2019-03-20T20:40:54.990Z,10.18
2019-03-20T20:43:25.176Z,10.14
2019-03-20T20:45:55.499Z,10.17
2019-03-20T20:48:25.840Z,10.18
2019-03-20T20:50:58.600Z,10.16
2019-03-20T20:53:28.898Z,10.22
2019-03-20T20:56:00.972Z,10.20
2019-03-20T20:58:31.195Z,10.19
2019-03-20T21:01:01.823Z,10.20
2019-03-20T21:03:32.087Z,10.17
2019-03-20T21:06:04.652Z,10.17
2019-03-20T21:08:37.962Z,10.17
2019-03-20T21:11:08.264Z,10.17
2019-03-20T21:13:38.389Z,10.11
2019-03-20T21:16:09.614Z,10.18
2019-03-20T21:19:29.812Z,10.21
2019-03-20T21:22:39.714Z,10.17
2019-03-20T21:25:10.415Z,10.23
2019-03-20T21:28:34.354Z,10.17
2019-03-20T21:31:19.979Z,10.20
2019-03-20T21:34:32.908Z,10.20
2019-03-20T21:38:02.286Z,10.20
2019-03-20T21:41:04.277Z,10.25
2019-03-20T21:44:14.028Z,10.17
2019-03-20T21:47:18.799Z,10.21
2019-03-20T21:49:49.576Z,10.24
2019-03-20T21:52:20.670Z,10.27
2019-03-20T21:55:41.322Z,10.30
2019-03-20T21:58:33.182Z,10.24
2019-03-20T22:01:58.692Z,10.18
2019-03-20T22:04:31.348Z,10.20
2019-03-20T22:07:06.317Z,10.28
2019-03-20T22:10:14.738Z,10.24
2019-03-20T22:13:17.827Z,10.25
2019-03-20T22:16:19.976Z,10.23
2019-03-20T22:19:29.249Z,10.18
2019-03-20T22:22:45.818Z,10.16
2019-03-20T22:25:53.472Z,10.12
2019-03-20T22:28:55.796Z,10.17
2019-03-20T22:31:27.216Z,10.14
2019-03-20T22:34:33.470Z,10.16
2019-03-20T22:37:07.229Z,10.17
2019-03-20T22:40:36.510Z,10.13
2019-03-20T22:43:38.932Z,10.15
2019-03-20T22:47:11.379Z,10.21
2019-03-20T22:50:05.395Z,10.26
2019-03-20T22:53:11.141Z,10.26
2019-03-20T22:56:09.091Z,10.24
2019-03-20T22:58:47.013Z,10.28
2019-03-20T23:01:33.928Z,10.27
2019-03-20T23:04:12.218Z,10.25
2019-03-20T23:06:43.003Z,10.24
2019-03-20T23:09:13.750Z,10.31
2019-03-20T23:11:44.553Z,10.39
2019-03-20T23:14:15.280Z,10.34
2019-03-20T23:16:46.345Z,10.28
2019-03-20T23:19:17.267Z,10.31
2019-03-20T23:21:48.042Z,10.27
2019-03-20T23:24:21.160Z,10.19
2019-03-20T23:26:51.975Z,10.25
2019-03-20T23:29:22.808Z,10.25
2019-03-20T23:31:56.911Z,10.28
2019-03-20T23:34:28.165Z,10.30
2019-03-20T23:36:58.943Z,10.32
2019-03-20T23:39:30.458Z,10.34
2019-03-20T23:42:01.376Z,10.31
2019-03-20T23:44:32.065Z,10.29
2019-03-20T23:47:24.401Z,10.30
2019-03-20T23:49:55.429Z,10.28
2019-03-20T23:52:26.324Z,10.33
2019-03-20T23:54:58.381Z,10.32
2019-03-20T23:57:29.758Z,10.42
